createdAt,value
2019-05-13T00:00:23.578Z,30.90
2019-05-13T00:01:23.749Z,30.69
2019-05-13T00:02:24.055Z,31.11
2019-05-13T00:03:23.950Z,30.49
2019-05-13T00:04:24.217Z,30.69
2019-05-13T00:05:23.400Z,30.99
2019-05-13T00:06:23.844Z,30.60
2019-05-13T00:07:23.968Z,30.99
2019-05-13T00:08:24.867Z,30.69
2019-05-13T00:09:24.504Z,30.71
2019-05-13T00:10:24.378Z,30.79
2019-05-13T00:11:23.983Z,31.10
2019-05-13T00:12:24.026Z,30.79
2019-05-13T00:13:23.723Z,30.40
2019-05-13T00:14:29.058Z,30.49
2019-05-13T00:15:24.330Z,30.69
2019-05-13T00:16:23.463Z,30.40
2019-05-13T00:17:23.670Z,30.79
2019-05-13T00:18:23.520Z,30.49
2019-05-13T00:19:23.403Z,31.29
2019-05-13T00:20:24.111Z,31.31
2019-05-13T00:21:23.266Z,31.20
2019-05-13T00:22:23.544Z,31.10
2019-05-13T00:23:23.347Z,31.10
2019-05-13T00:24:24.238Z,30.69
2019-05-13T00:25:24.209Z,30.90
2019-05-13T00:26:24.466Z,30.79
2019-05-13T00:27:23.508Z,30.69
2019-05-13T00:28:23.458Z,30.79
2019-05-13T00:29:23.451Z,30.40
2019-05-13T00:30:23.482Z,30.29
2019-05-13T00:31:24.105Z,30.60
2019-05-13T00:32:23.701Z,30.99
2019-05-13T00:33:24.359Z,30.60
2019-05-13T00:34:24.398Z,30.79
2019-05-13T00:35:23.316Z,30.40
2019-05-13T00:36:24.301Z,30.79
2019-05-13T00:37:24.485Z,30.31
2019-05-13T00:38:24.540Z,29.60
2019-05-13T00:39:24.565Z,29.99
2019-05-13T00:40:24.030Z,30.10
2019-05-13T00:41:24.504Z,29.80
2019-05-13T00:42:24.499Z,30.60
2019-05-13T00:43:24.494Z,29.60
2019-05-13T00:44:24.412Z,29.80
2019-05-13T00:45:24.508Z,29.90
2019-05-13T00:46:28.994Z,30.79
2019-05-13T00:47:23.662Z,29.90
2019-05-13T00:48:23.388Z,29.39
2019-05-13T00:49:23.842Z,30.60
2019-05-13T00:50:24.087Z,29.71
2019-05-13T00:51:24.420Z,29.99
2019-05-13T00:52:23.548Z,29.61
2019-05-13T00:53:23.718Z,29.99
2019-05-13T00:54:23.675Z,29.99
2019-05-13T00:55:23.759Z,29.90
2019-05-13T00:56:23.737Z,29.90
2019-05-13T00:57:23.793Z,29.80
2019-05-13T00:58:24.228Z,30.29
2019-05-13T00:59:24.249Z,29.99
2019-05-13T01:00:24.314Z,29.80
2019-05-13T01:01:24.282Z,29.69
2019-05-13T01:02:24.293Z,29.99
2019-05-13T01:03:26.374Z,29.99
2019-05-13T01:04:23.406Z,29.69
2019-05-13T01:05:23.430Z,29.99
2019-05-13T01:06:23.708Z,29.99
2019-05-13T01:07:28.318Z,29.99
2019-05-13T01:08:23.759Z,29.39
2019-05-13T01:09:23.751Z,30.41
2019-05-13T01:10:23.758Z,29.99
2019-05-13T01:11:23.669Z,30.11
2019-05-13T01:12:23.810Z,29.99
2019-05-13T01:13:23.753Z,30.19
2019-05-13T01:14:23.537Z,30.10
2019-05-13T01:15:24.569Z,29.80
2019-05-13T01:16:23.443Z,29.99
2019-05-13T01:17:23.527Z,29.90
2019-05-13T01:18:28.759Z,29.69
2019-05-13T01:19:23.732Z,29.21
2019-05-13T01:20:23.545Z,29.91
2019-05-13T01:21:23.864Z,29.19
2019-05-13T01:22:23.952Z,29.19
2019-05-13T01:23:24.010Z,30.10
2019-05-13T01:24:24.309Z,29.19
2019-05-13T01:25:24.261Z,29.99
2019-05-13T01:26:23.293Z,29.39
2019-05-13T01:27:23.929Z,29.49
2019-05-13T01:28:23.898Z,29.69
2019-05-13T01:29:23.824Z,29.99
2019-05-13T01:30:23.779Z,29.39
2019-05-13T01:31:23.882Z,29.80
2019-05-13T01:32:23.891Z,30.10
2019-05-13T01:33:23.522Z,29.60
2019-05-13T01:34:23.626Z,29.69
2019-05-13T01:35:23.642Z,29.30
2019-05-13T01:36:23.486Z,29.49
2019-05-13T01:37:24.794Z,29.49
2019-05-13T01:38:24.135Z,29.39
2019-05-13T01:39:24.210Z,29.60
2019-05-13T01:40:23.952Z,29.69
2019-05-13T01:41:23.918Z,28.80
2019-05-13T01:42:24.040Z,28.89
2019-05-13T01:43:24.279Z,29.00
2019-05-13T01:44:24.216Z,29.30
2019-05-13T01:45:24.003Z,29.69
2019-05-13T01:46:24.140Z,29.19
2019-05-13T01:47:24.066Z,29.60
2019-05-13T01:48:23.884Z,29.11
2019-05-13T01:49:23.959Z,29.39
2019-05-13T01:51:13.710Z,29.49
2019-05-13T01:51:24.033Z,29.30
2019-05-13T01:54:31.050Z,29.00
2019-05-13T01:55:33.595Z,28.59
2019-05-13T01:56:31.021Z,28.69
2019-05-13T01:57:31.006Z,28.80
2019-05-13T01:58:30.991Z,28.80
2019-05-13T01:59:30.979Z,29.11
2019-05-13T02:00:30.974Z,29.10
2019-05-13T02:01:33.469Z,28.69
2019-05-13T02:02:33.160Z,29.19
2019-05-13T02:03:30.932Z,28.89
2019-05-13T02:04:30.923Z,28.89
2019-05-13T02:05:30.955Z,28.89
2019-05-13T02:06:30.904Z,28.89
2019-05-13T02:07:30.887Z,28.89
2019-05-13T02:08:30.882Z,28.39
2019-05-13T02:09:30.873Z,29.10
2019-05-13T02:10:30.858Z,29.00
2019-05-13T02:11:33.986Z,29.10
2019-05-13T02:12:30.830Z,29.11
2019-05-13T02:13:30.822Z,29.39
2019-05-13T02:14:30.809Z,29.39
2019-05-13T02:15:30.804Z,29.39
2019-05-13T02:16:30.804Z,29.19
2019-05-13T02:17:30.789Z,29.10
2019-05-13T02:18:30.771Z,29.39
2019-05-13T02:19:30.752Z,29.19
2019-05-13T02:20:30.748Z,29.60
2019-05-13T02:21:33.459Z,29.00
2019-05-13T02:22:30.802Z,29.60
2019-05-13T02:23:30.713Z,29.39
2019-05-13T02:24:30.701Z,29.00
2019-05-13T02:25:30.693Z,29.30
2019-05-13T02:26:37.065Z,29.60
2019-05-13T02:27:30.661Z,29.10
2019-05-13T02:28:30.664Z,28.89
2019-05-13T02:29:30.649Z,29.00
2019-05-13T02:30:30.632Z,29.10
2019-05-13T02:31:41.447Z,28.69
2019-05-13T02:32:32.874Z,29.10
2019-05-13T02:33:33.721Z,28.89
2019-05-13T02:34:32.207Z,29.10
2019-05-13T02:35:32.526Z,29.10
2019-05-13T02:36:32.961Z,29.00
2019-05-13T02:37:34.130Z,28.69
2019-05-13T02:38:35.189Z,29.19
2019-05-13T02:39:32.886Z,29.10
2019-05-13T02:40:32.691Z,29.10
2019-05-13T02:41:33.892Z,29.00
2019-05-13T02:42:32.779Z,29.10
2019-05-13T02:43:33.328Z,29.10
2019-05-13T02:44:33.415Z,29.00
2019-05-13T02:45:33.341Z,29.19
2019-05-13T02:46:33.744Z,29.10
2019-05-13T02:47:33.013Z,28.89
2019-05-13T02:48:32.468Z,28.89
2019-05-13T02:49:32.461Z,28.39
2019-05-13T02:50:33.878Z,29.00
2019-05-13T02:51:32.832Z,28.69
2019-05-13T02:52:33.459Z,29.19
2019-05-13T02:53:33.275Z,29.00
2019-05-13T02:54:33.717Z,29.00
2019-05-13T02:55:32.866Z,28.19
2019-05-13T02:56:32.912Z,29.19
2019-05-13T02:57:32.765Z,28.59
2019-05-13T02:58:36.417Z,28.80
2019-05-13T02:59:33.327Z,29.00
2019-05-13T03:00:32.874Z,28.69
2019-05-13T03:01:33.133Z,29.30
2019-05-13T03:02:32.730Z,29.69
2019-05-13T03:03:32.716Z,29.39
2019-05-13T03:04:32.544Z,29.30
2019-05-13T03:05:32.027Z,28.89
2019-05-13T03:06:33.111Z,29.00
2019-05-13T03:07:33.047Z,29.00
2019-05-13T03:08:41.182Z,29.30
2019-05-13T03:09:32.542Z,29.49
2019-05-13T03:10:32.909Z,29.69
2019-05-13T03:11:32.900Z,29.10
2019-05-13T03:12:32.215Z,29.60
2019-05-13T03:13:32.656Z,29.49
2019-05-13T03:14:32.399Z,29.69
2019-05-13T03:15:32.732Z,29.49
2019-05-13T03:16:32.441Z,29.49
2019-05-13T03:17:32.698Z,29.30
2019-05-13T03:18:33.281Z,29.60
2019-05-13T03:19:32.992Z,29.71
2019-05-13T03:20:33.217Z,29.71
2019-05-13T03:21:32.626Z,29.81
2019-05-13T03:22:32.606Z,30.01
2019-05-13T03:23:32.736Z,29.81
2019-05-13T03:24:32.965Z,30.31
2019-05-13T03:25:33.007Z,30.61
2019-05-13T03:26:32.165Z,30.51
2019-05-13T03:27:33.663Z,30.31
2019-05-13T03:28:33.191Z,30.71
2019-05-13T03:29:32.988Z,30.61
2019-05-13T03:30:36.056Z,30.41
2019-05-13T03:31:35.124Z,31.31
2019-05-13T03:32:37.864Z,30.81
2019-05-13T03:33:36.830Z,31.29
2019-05-13T03:34:36.149Z,31.10
2019-05-13T03:35:36.307Z,31.20
2019-05-13T03:36:36.335Z,30.99
2019-05-13T03:37:34.710Z,30.69
2019-05-13T03:38:32.649Z,30.90
2019-05-13T03:39:33.007Z,31.29
2019-05-13T03:40:32.793Z,30.99
2019-05-13T03:41:32.751Z,30.69
2019-05-13T03:42:33.251Z,30.90
2019-05-13T03:43:32.541Z,30.79
2019-05-13T03:44:32.533Z,31.08
2019-05-13T03:45:32.505Z,30.99
2019-05-13T03:46:33.172Z,30.60
2019-05-13T03:47:32.749Z,30.79
2019-05-13T03:48:29.751Z,30.69
2019-05-13T03:49:32.647Z,30.69
2019-05-13T03:50:33.416Z,31.10
2019-05-13T03:51:32.564Z,31.20
2019-05-13T03:52:33.308Z,31.29
2019-05-13T03:53:32.452Z,31.59
2019-05-13T03:54:32.647Z,31.70
2019-05-13T03:55:32.590Z,31.59
2019-05-13T03:56:32.704Z,31.40
2019-05-13T03:57:33.424Z,31.20
2019-05-13T03:58:32.410Z,31.41
2019-05-13T03:59:32.923Z,31.49
2019-05-13T04:00:32.262Z,31.29
2019-05-13T04:01:32.550Z,31.10
2019-05-13T04:02:35.976Z,31.10
2019-05-13T04:03:32.880Z,31.61
2019-05-13T04:04:32.422Z,32.09
2019-05-13T04:05:33.135Z,31.10
2019-05-13T04:06:32.355Z,30.99
2019-05-13T04:07:32.437Z,31.59
2019-05-13T04:08:32.516Z,31.20
2019-05-13T04:09:32.569Z,30.90
2019-05-13T04:10:33.459Z,31.20
2019-05-13T04:11:32.834Z,31.10
2019-05-13T04:12:33.111Z,31.49
2019-05-13T04:13:29.463Z,31.49
2019-05-13T04:14:29.454Z,31.49
2019-05-13T04:15:31.976Z,31.49
2019-05-13T04:16:32.087Z,31.49
2019-05-13T04:17:32.004Z,31.20
2019-05-13T04:18:32.027Z,31.70
2019-05-13T04:19:29.404Z,31.59
2019-05-13T04:20:29.385Z,31.29
2019-05-13T04:21:29.376Z,31.49
2019-05-13T04:22:29.358Z,31.40
2019-05-13T04:23:32.018Z,31.40
2019-05-13T04:24:29.345Z,31.20
2019-05-13T04:25:32.246Z,30.99
2019-05-13T04:26:32.058Z,31.40
2019-05-13T04:27:32.404Z,31.10
2019-05-13T04:28:32.718Z,31.49
2019-05-13T04:29:32.476Z,32.29
2019-05-13T04:30:32.580Z,31.70
2019-05-13T04:31:29.258Z,30.99
2019-05-13T04:32:33.344Z,31.71
2019-05-13T04:33:29.242Z,31.79
2019-05-13T04:34:35.396Z,31.71
2019-05-13T04:35:29.215Z,32.40
2019-05-13T04:36:31.827Z,32.09
2019-05-13T04:37:32.622Z,32.29
2019-05-13T04:38:29.186Z,32.09
2019-05-13T04:39:44.505Z,32.11
2019-05-13T04:40:33.082Z,32.29
2019-05-13T04:41:29.152Z,31.99
2019-05-13T04:42:29.143Z,31.79
2019-05-13T04:43:33.722Z,32.29
2019-05-13T04:44:32.438Z,32.29
2019-05-13T04:45:32.614Z,32.29
2019-05-13T04:46:32.524Z,32.20
2019-05-13T04:47:29.093Z,32.29
2019-05-13T04:48:29.070Z,31.10
2019-05-13T04:49:32.278Z,31.99
2019-05-13T04:50:32.697Z,31.79
2019-05-13T04:51:29.063Z,32.29
2019-05-13T04:52:29.046Z,31.90
2019-05-13T04:53:29.017Z,31.70
2019-05-13T04:54:29.004Z,31.79
2019-05-13T04:55:29.001Z,31.90
2019-05-13T04:56:28.977Z,31.90
2019-05-13T04:57:28.967Z,32.50
2019-05-13T04:58:31.941Z,31.79
2019-05-13T04:59:28.945Z,31.70
2019-05-13T05:00:32.162Z,31.99
2019-05-13T05:01:32.207Z,31.70
2019-05-13T05:02:39.882Z,31.70
2019-05-13T05:03:40.798Z,31.99
2019-05-13T05:04:33.978Z,31.79
2019-05-13T05:05:28.879Z,32.09
2019-05-13T05:06:35.248Z,31.70
2019-05-13T05:07:28.848Z,31.99
2019-05-13T05:08:28.843Z,31.99
2019-05-13T05:09:28.843Z,31.70
2019-05-13T05:10:34.695Z,32.59
2019-05-13T05:11:32.186Z,32.50
2019-05-13T05:12:28.794Z,32.70
2019-05-13T05:13:28.789Z,32.79
2019-05-13T05:14:28.795Z,32.40
2019-05-13T05:15:28.766Z,33.20
2019-05-13T05:16:28.756Z,32.50
2019-05-13T05:17:28.743Z,33.00
2019-05-13T05:18:28.727Z,33.11
2019-05-13T05:19:31.840Z,32.91
2019-05-13T05:20:28.743Z,32.81
2019-05-13T05:21:28.696Z,32.71
2019-05-13T05:22:28.681Z,32.70
2019-05-13T05:23:28.670Z,32.59
2019-05-13T05:24:28.665Z,31.71
2019-05-13T05:25:29.330Z,32.11
2019-05-13T05:26:31.157Z,31.71
2019-05-13T05:27:28.625Z,32.01
2019-05-13T05:28:28.609Z,31.71
2019-05-13T05:29:28.599Z,31.91
2019-05-13T05:30:28.587Z,31.81
2019-05-13T05:31:28.606Z,31.91
2019-05-13T05:32:28.571Z,32.11
2019-05-13T05:33:28.561Z,32.29
2019-05-13T05:34:28.543Z,32.09
2019-05-13T05:35:28.532Z,31.81
2019-05-13T05:36:28.523Z,30.99
2019-05-13T05:37:28.552Z,31.20
2019-05-13T05:38:34.590Z,31.51
2019-05-13T05:39:28.491Z,31.21
2019-05-13T05:40:31.707Z,31.81
2019-05-13T05:41:31.575Z,31.31
2019-05-13T05:42:28.458Z,32.09
2019-05-13T05:43:28.483Z,31.11
2019-05-13T05:44:28.439Z,32.50
2019-05-13T05:45:28.415Z,32.29
2019-05-13T05:46:28.411Z,31.91
2019-05-13T05:47:28.400Z,31.81
2019-05-13T05:48:28.390Z,31.99
2019-05-13T05:49:28.410Z,31.90
2019-05-13T05:50:28.366Z,31.70
2019-05-13T05:51:28.360Z,31.90
2019-05-13T05:52:28.344Z,31.90
2019-05-13T05:53:28.326Z,31.91
2019-05-13T05:54:28.314Z,32.31
2019-05-13T05:55:28.310Z,32.01
2019-05-13T05:56:28.295Z,31.91
2019-05-13T05:57:28.288Z,32.11
2019-05-13T05:58:28.275Z,31.70
2019-05-13T05:59:28.299Z,31.91
2019-05-13T06:00:28.247Z,32.09
2019-05-13T06:01:28.236Z,31.90
2019-05-13T06:02:28.232Z,31.81
2019-05-13T06:03:28.242Z,31.90
2019-05-13T06:04:28.202Z,31.99
2019-05-13T06:05:28.197Z,31.99
2019-05-13T06:06:28.197Z,32.09
2019-05-13T06:07:28.171Z,31.59
2019-05-13T06:08:28.159Z,32.50
2019-05-13T06:09:28.151Z,31.90
2019-05-13T06:10:46.256Z,32.09
2019-05-13T06:11:31.152Z,31.90
2019-05-13T06:12:28.144Z,31.81
2019-05-13T06:13:28.103Z,31.99
2019-05-13T06:14:28.101Z,31.61
2019-05-13T06:15:28.083Z,31.79
2019-05-13T06:16:28.075Z,32.01
2019-05-13T06:17:28.062Z,32.01
2019-05-13T06:18:28.042Z,31.71
2019-05-13T06:19:28.040Z,32.31
2019-05-13T06:20:28.029Z,32.11
2019-05-13T06:21:28.021Z,31.41
2019-05-13T06:22:27.997Z,32.11
2019-05-13T06:23:27.992Z,31.91
2019-05-13T06:24:28.024Z,32.11
2019-05-13T06:25:27.970Z,31.21
2019-05-13T06:26:27.976Z,32.01
2019-05-13T06:27:27.945Z,31.71
2019-05-13T06:28:27.940Z,31.71
2019-05-13T06:29:27.922Z,32.31
2019-05-13T06:30:27.911Z,31.21
2019-05-13T06:31:27.905Z,31.01
2019-05-13T06:32:27.923Z,31.21
2019-05-13T06:33:27.876Z,31.71
2019-05-13T06:34:27.868Z,32.11
2019-05-13T06:35:27.857Z,32.31
2019-05-13T06:36:27.842Z,31.81
2019-05-13T06:37:27.835Z,31.21
2019-05-13T06:38:27.832Z,31.21
2019-05-13T06:39:27.811Z,31.81
2019-05-13T06:40:27.796Z,32.01
2019-05-13T06:41:27.783Z,32.11
2019-05-13T06:42:33.993Z,32.01
2019-05-13T06:43:27.771Z,32.01
2019-05-13T06:44:27.749Z,31.71
2019-05-13T06:45:27.743Z,32.03
2019-05-13T06:46:27.729Z,32.01
2019-05-13T06:47:27.717Z,32.31
2019-05-13T06:48:27.750Z,32.01
2019-05-13T06:49:27.693Z,31.71
2019-05-13T06:50:27.686Z,31.91
2019-05-13T06:51:27.674Z,32.61
2019-05-13T06:52:27.700Z,31.91
2019-05-13T06:53:27.656Z,32.11
2019-05-13T06:54:27.646Z,32.01
2019-05-13T06:55:27.627Z,32.11
2019-05-13T06:56:27.618Z,32.01
2019-05-13T06:57:27.613Z,31.91
2019-05-13T06:58:27.597Z,30.91
2019-05-13T06:59:27.592Z,32.01
2019-05-13T07:00:27.586Z,32.11
2019-05-13T07:01:27.559Z,31.91
2019-05-13T07:02:27.550Z,32.51
2019-05-13T07:03:27.593Z,32.11
2019-05-13T07:04:27.526Z,31.91
2019-05-13T07:05:27.555Z,31.82
2019-05-13T07:06:27.609Z,31.81
2019-05-13T07:07:27.495Z,31.81
2019-05-13T07:08:27.484Z,31.91
2019-05-13T07:09:27.472Z,33.23
2019-05-13T07:10:27.458Z,33.11
2019-05-13T07:11:27.540Z,32.61
2019-05-13T07:12:27.437Z,32.59
2019-05-13T07:13:27.421Z,33.00
2019-05-13T07:14:33.499Z,31.79
2019-05-13T07:15:27.402Z,31.91
2019-05-13T07:16:27.427Z,31.99
2019-05-13T07:17:27.375Z,32.21
2019-05-13T07:18:27.369Z,32.91
2019-05-13T07:19:27.360Z,32.31
2019-05-13T07:20:27.350Z,33.51
2019-05-13T07:21:27.337Z,33.81
2019-05-13T07:22:27.337Z,33.09
2019-05-13T07:23:27.315Z,33.50
2019-05-13T07:24:27.300Z,33.09
2019-05-13T07:25:27.286Z,33.59
2019-05-13T07:26:27.276Z,33.71
2019-05-13T07:27:27.497Z,33.51
2019-05-13T07:28:27.256Z,33.21
2019-05-13T07:29:27.269Z,33.41
2019-05-13T07:30:27.234Z,33.51
2019-05-13T07:31:27.226Z,33.83
2019-05-13T07:32:27.215Z,33.53
2019-05-13T07:33:27.246Z,34.05
2019-05-13T07:34:27.183Z,33.94
2019-05-13T07:35:30.736Z,34.05
2019-05-13T07:36:28.162Z,34.44
2019-05-13T07:37:27.156Z,33.84
2019-05-13T07:38:27.152Z,33.64
2019-05-13T07:39:27.142Z,33.64
2019-05-13T07:40:27.116Z,33.54
2019-05-13T07:41:36.390Z,32.94
2019-05-13T07:42:28.095Z,32.86
2019-05-13T07:43:27.096Z,33.46
2019-05-13T07:44:27.110Z,34.24
2019-05-13T07:45:27.063Z,33.53
2019-05-13T07:46:33.435Z,33.34
2019-05-13T07:47:27.041Z,33.54
2019-05-13T07:48:27.954Z,33.74
2019-05-13T07:49:27.021Z,33.64
2019-05-13T07:50:27.020Z,33.84
2019-05-13T07:51:26.994Z,33.34
2019-05-13T07:52:26.979Z,34.76
2019-05-13T07:53:27.028Z,34.44
2019-05-13T07:54:26.959Z,33.14
2019-05-13T07:55:26.955Z,33.64
2019-05-13T07:56:26.935Z,33.84
2019-05-13T07:57:26.929Z,33.56
2019-05-13T07:58:26.911Z,33.54
2019-05-13T07:59:26.902Z,34.06
2019-05-13T08:00:26.896Z,34.56
2019-05-13T08:01:26.883Z,34.74
2019-05-13T08:02:26.865Z,34.44
2019-05-13T08:03:26.930Z,33.94
2019-05-13T08:04:26.932Z,33.24
2019-05-13T08:05:26.840Z,33.14
2019-05-13T08:06:26.820Z,33.84
2019-05-13T08:07:26.813Z,33.24
2019-05-13T08:08:26.798Z,33.54
2019-05-13T08:09:26.802Z,32.64
2019-05-13T08:10:26.814Z,33.14
2019-05-13T08:11:26.778Z,33.36
2019-05-13T08:12:26.753Z,33.66
2019-05-13T08:13:26.748Z,33.56
2019-05-13T08:14:26.729Z,33.76
2019-05-13T08:15:26.726Z,33.56
2019-05-13T08:16:26.748Z,33.16
2019-05-13T08:17:26.700Z,33.34
2019-05-13T08:18:32.794Z,33.04
2019-05-13T08:19:26.675Z,32.84
2019-05-13T08:20:26.667Z,33.34
2019-05-13T08:21:26.652Z,32.54
2019-05-13T08:22:26.646Z,33.04
2019-05-13T08:23:26.634Z,32.64
2019-05-13T08:24:26.617Z,31.84
2019-05-13T08:25:26.612Z,32.84
2019-05-13T08:26:26.595Z,32.74
2019-05-13T08:27:30.805Z,31.94
2019-05-13T08:28:27.582Z,32.04
2019-05-13T08:29:26.560Z,32.14
2019-05-13T08:30:26.550Z,32.04
2019-05-13T08:31:26.541Z,32.84
2019-05-13T08:32:26.523Z,32.74
2019-05-13T08:33:26.523Z,32.94
2019-05-13T08:34:26.506Z,33.54
2019-05-13T08:35:26.491Z,32.86
2019-05-13T08:36:26.482Z,33.74
2019-05-13T08:37:26.503Z,33.84
2019-05-13T08:38:26.466Z,33.84
2019-05-13T08:39:26.796Z,33.76
2019-05-13T08:40:27.438Z,34.05
2019-05-13T08:41:26.433Z,33.16
2019-05-13T08:42:26.416Z,33.76
2019-05-13T08:43:26.555Z,33.46
2019-05-13T08:44:26.408Z,32.86
2019-05-13T08:45:26.377Z,34.76
2019-05-13T08:46:26.369Z,34.66
2019-05-13T08:47:26.351Z,34.26
2019-05-13T08:48:26.348Z,34.66
2019-05-13T08:49:26.370Z,34.74
2019-05-13T08:50:32.710Z,34.06
2019-05-13T08:51:26.312Z,34.56
2019-05-13T08:52:26.303Z,35.05
2019-05-13T08:53:26.292Z,34.55
2019-05-13T08:54:26.274Z,34.44
2019-05-13T08:55:26.337Z,34.64
2019-05-13T08:56:26.265Z,35.05
2019-05-13T08:57:26.242Z,34.44
2019-05-13T08:58:27.024Z,34.05
2019-05-13T08:59:26.222Z,34.23
2019-05-13T09:00:26.209Z,34.24
2019-05-13T09:01:26.214Z,34.94
2019-05-13T09:02:26.188Z,34.24
2019-05-13T09:03:26.232Z,34.44
2019-05-13T09:04:26.163Z,33.83
2019-05-13T09:05:26.150Z,34.03
2019-05-13T09:06:26.145Z,34.12
2019-05-13T09:07:26.138Z,33.54
2019-05-13T09:08:26.129Z,34.12
2019-05-13T09:09:26.103Z,34.12
2019-05-13T09:10:26.094Z,34.05
2019-05-13T09:11:26.082Z,34.43
2019-05-13T09:12:32.045Z,34.43
2019-05-13T09:13:27.056Z,34.33
2019-05-13T09:14:26.056Z,34.93
2019-05-13T09:15:26.040Z,34.23
2019-05-13T09:16:26.024Z,34.01
2019-05-13T09:17:26.011Z,34.63
2019-05-13T09:18:26.026Z,34.63
2019-05-13T09:19:25.998Z,34.12
2019-05-13T09:20:25.985Z,34.03
2019-05-13T09:21:25.977Z,34.12
2019-05-13T09:22:32.054Z,34.12
2019-05-13T09:23:25.949Z,34.01
2019-05-13T09:24:33.040Z,34.21
2019-05-13T09:25:26.927Z,34.21
2019-05-13T09:26:25.909Z,33.81
2019-05-13T09:27:25.898Z,34.41
2019-05-13T09:28:25.889Z,33.31
2019-05-13T09:29:25.877Z,34.01
2019-05-13T09:30:27.385Z,34.41
2019-05-13T09:31:25.858Z,35.21
2019-05-13T09:32:25.850Z,34.61
2019-05-13T09:33:25.835Z,33.91
2019-05-13T09:34:25.821Z,34.01
2019-05-13T09:35:25.856Z,34.21
2019-05-13T09:36:25.810Z,34.81
2019-05-13T09:37:25.793Z,34.21
2019-05-13T09:38:25.778Z,34.41
2019-05-13T09:39:25.767Z,34.41
2019-05-13T09:40:25.751Z,34.11
2019-05-13T09:41:25.753Z,34.41
2019-05-13T09:42:25.734Z,34.51
2019-05-13T09:43:26.548Z,33.21
2019-05-13T09:44:25.714Z,32.71
2019-05-13T09:45:25.697Z,33.11
2019-05-13T09:46:25.759Z,33.31
2019-05-13T09:47:28.321Z,32.81
2019-05-13T09:48:25.664Z,32.01
2019-05-13T09:49:25.656Z,32.01
2019-05-13T09:50:32.161Z,32.01
2019-05-13T09:51:26.640Z,31.71
2019-05-13T09:52:25.669Z,32.31
2019-05-13T09:53:25.609Z,32.01
2019-05-13T09:54:33.129Z,32.11
2019-05-13T09:55:29.233Z,31.91
2019-05-13T09:56:25.571Z,32.21
2019-05-13T09:57:25.565Z,31.81
2019-05-13T09:58:29.270Z,32.31
2019-05-13T09:59:25.536Z,31.81
2019-05-13T10:00:25.530Z,31.11
2019-05-13T10:01:25.517Z,30.91
2019-05-13T10:02:25.510Z,31.41
2019-05-13T10:03:29.514Z,31.41
2019-05-13T10:04:26.489Z,31.31
2019-05-13T10:05:25.472Z,31.41
2019-05-13T10:06:25.463Z,31.32
2019-05-13T10:07:25.448Z,31.21
2019-05-13T10:08:25.434Z,31.31
2019-05-13T10:09:25.470Z,31.41
2019-05-13T10:10:25.414Z,31.91
2019-05-13T10:11:25.407Z,30.91
2019-05-13T10:12:25.400Z,31.11
2019-05-13T10:13:25.384Z,31.31
2019-05-13T10:14:25.378Z,31.41
2019-05-13T10:15:25.367Z,30.91
2019-05-13T10:16:25.358Z,32.31
2019-05-13T10:17:25.338Z,31.91
2019-05-13T10:18:25.324Z,32.41
2019-05-13T10:19:25.326Z,31.71
2019-05-13T10:20:25.333Z,31.99
2019-05-13T10:21:25.293Z,30.79
2019-05-13T10:22:25.281Z,32.29
2019-05-13T10:23:25.273Z,31.81
2019-05-13T10:24:25.259Z,32.01
2019-05-13T10:25:25.249Z,32.31
2019-05-13T10:26:32.289Z,31.81
2019-05-13T10:27:25.221Z,32.23
2019-05-13T10:28:25.217Z,31.73
2019-05-13T10:29:25.197Z,31.73
2019-05-13T10:30:25.192Z,32.12
2019-05-13T10:31:25.174Z,32.53
2019-05-13T10:32:25.177Z,32.32
2019-05-13T10:33:25.163Z,31.73
2019-05-13T10:34:25.152Z,32.43
2019-05-13T10:35:25.134Z,33.03
2019-05-13T10:36:25.127Z,31.82
2019-05-13T10:37:25.146Z,33.03
2019-05-13T10:38:27.789Z,32.43
2019-05-13T10:39:25.086Z,31.93
2019-05-13T10:40:25.079Z,32.12
2019-05-13T10:41:25.104Z,32.03
2019-05-13T10:42:25.053Z,32.12
2019-05-13T10:43:31.445Z,32.73
2019-05-13T10:44:26.034Z,32.71
2019-05-13T10:45:25.021Z,32.32
2019-05-13T10:46:25.013Z,32.71
2019-05-13T10:47:24.996Z,31.71
2019-05-13T10:48:25.044Z,32.01
2019-05-13T10:49:24.981Z,32.31
2019-05-13T10:50:27.770Z,31.71
2019-05-13T10:51:24.955Z,32.21
2019-05-13T10:52:24.951Z,32.01
2019-05-13T10:53:24.935Z,31.71
2019-05-13T10:54:24.932Z,31.91
2019-05-13T10:55:24.912Z,31.91
2019-05-13T10:56:24.933Z,32.51
2019-05-13T10:57:24.886Z,32.29
2019-05-13T10:58:31.605Z,31.91
2019-05-13T10:59:24.862Z,31.71
2019-05-13T11:00:24.853Z,31.51
2019-05-13T11:01:24.839Z,31.91
2019-05-13T11:02:24.836Z,32.01
2019-05-13T11:03:24.816Z,32.01
2019-05-13T11:04:24.830Z,31.91
2019-05-13T11:05:24.828Z,31.73
2019-05-13T11:06:24.790Z,32.01
2019-05-13T11:07:24.768Z,31.91
2019-05-13T11:08:24.757Z,32.53
2019-05-13T11:09:24.767Z,33.03
2019-05-13T11:10:24.736Z,31.93
2019-05-13T11:11:24.731Z,32.53
2019-05-13T11:12:28.405Z,32.53
2019-05-13T11:13:24.703Z,32.43
2019-05-13T11:14:24.689Z,32.43
2019-05-13T11:15:24.678Z,32.82
2019-05-13T11:16:24.679Z,32.73
2019-05-13T11:17:31.098Z,32.73
2019-05-13T11:18:25.660Z,32.41
2019-05-13T11:19:24.634Z,31.73
2019-05-13T11:20:24.629Z,32.01
2019-05-13T11:21:24.627Z,32.01
2019-05-13T11:22:24.641Z,31.71
2019-05-13T11:23:24.589Z,31.91
2019-05-13T11:24:24.579Z,32.03
2019-05-13T11:25:24.581Z,31.82
2019-05-13T11:26:24.561Z,31.71
2019-05-13T11:27:24.548Z,31.81
2019-05-13T11:28:24.572Z,32.01
2019-05-13T11:29:24.527Z,31.91
2019-05-13T11:30:31.962Z,32.01
2019-05-13T11:31:24.497Z,32.12
2019-05-13T11:32:24.495Z,31.91
2019-05-13T11:33:24.474Z,31.91
2019-05-13T11:34:24.511Z,31.71
2019-05-13T11:35:24.456Z,31.81
2019-05-13T11:36:24.443Z,32.01
2019-05-13T11:37:24.434Z,31.71
2019-05-13T11:38:24.418Z,31.71
2019-05-13T11:39:24.408Z,31.81
2019-05-13T11:40:24.405Z,32.01
2019-05-13T11:41:24.385Z,32.41
2019-05-13T11:42:24.378Z,32.01
2019-05-13T11:43:27.970Z,32.01
2019-05-13T11:44:24.396Z,31.71
2019-05-13T11:45:24.338Z,31.71
2019-05-13T11:46:24.328Z,31.51
2019-05-13T11:47:24.316Z,32.01
2019-05-13T11:48:24.315Z,31.71
2019-05-13T11:49:24.292Z,31.71
2019-05-13T11:50:24.296Z,31.71
2019-05-13T11:51:24.443Z,31.81
2019-05-13T11:52:24.266Z,31.81
2019-05-13T11:53:32.659Z,32.41
2019-05-13T11:54:25.234Z,31.81
2019-05-13T11:55:24.267Z,31.99
2019-05-13T11:56:24.214Z,31.70
2019-05-13T11:57:24.208Z,31.91
2019-05-13T11:58:24.205Z,32.51
2019-05-13T11:59:24.188Z,32.11
2019-05-13T12:00:24.171Z,32.01
2019-05-13T12:01:24.175Z,31.81
2019-05-13T12:02:32.672Z,32.11
2019-05-13T12:03:24.138Z,31.91
2019-05-13T12:04:24.374Z,31.71
2019-05-13T12:05:24.117Z,31.90
2019-05-13T12:06:24.176Z,31.79
2019-05-13T12:07:24.097Z,32.50
2019-05-13T12:08:24.080Z,31.81
2019-05-13T12:09:24.071Z,31.91
2019-05-13T12:10:24.059Z,32.31
2019-05-13T12:11:24.049Z,31.79
2019-05-13T12:12:30.478Z,32.01
2019-05-13T12:13:25.021Z,32.51
2019-05-13T12:14:42.833Z,31.61
2019-05-13T12:15:38.147Z,32.11
2019-05-13T12:16:24.987Z,32.01
2019-05-13T12:17:24.005Z,31.99
2019-05-13T12:18:24.088Z,31.70
2019-05-13T12:19:23.958Z,31.71
2019-05-13T12:20:23.944Z,31.90
2019-05-13T12:21:23.939Z,31.71
2019-05-13T12:22:23.924Z,32.01
2019-05-13T12:23:23.986Z,32.11
2019-05-13T12:24:23.899Z,32.31
2019-05-13T12:25:23.894Z,31.91
2019-05-13T12:26:24.081Z,32.01
2019-05-13T12:27:23.868Z,32.31
2019-05-13T12:28:23.851Z,32.11
2019-05-13T12:29:23.857Z,31.61
2019-05-13T12:30:23.832Z,31.81
2019-05-13T12:31:23.825Z,31.81
2019-05-13T12:32:23.807Z,31.91
2019-05-13T12:33:23.838Z,31.71
2019-05-13T12:34:37.707Z,31.71
2019-05-13T12:35:24.777Z,32.01
2019-05-13T12:36:24.332Z,31.91
2019-05-13T12:37:23.751Z,31.81
2019-05-13T12:38:23.742Z,32.01
2019-05-13T12:39:24.181Z,31.91
2019-05-13T12:40:23.717Z,32.11
2019-05-13T12:41:23.708Z,31.91
2019-05-13T12:42:23.699Z,31.81
2019-05-13T12:43:24.419Z,31.91
2019-05-13T12:44:23.678Z,31.91
2019-05-13T12:45:23.703Z,31.91
2019-05-13T12:46:24.837Z,32.01
2019-05-13T12:47:23.640Z,31.71
2019-05-13T12:48:23.628Z,31.71
2019-05-13T12:49:31.474Z,31.81
2019-05-13T12:50:24.659Z,31.91
2019-05-13T12:51:23.605Z,32.01
2019-05-13T12:52:23.580Z,31.71
2019-05-13T12:53:23.570Z,31.91
2019-05-13T12:54:23.978Z,31.91